Time,TemperatureF,DewpointF,PressureIn,WindDirection,WindDirectionDegrees,WindSpeedMPH,WindSpeedGustMPH,Humidity,HourlyPrecipIn,Conditions,Clouds,dailyrainin,SoftwareType,DateUTC
2013-03-13 00:04:00,-999.0,-99.9,30.08,SSW,203,0.0,0.0,-999,0.00,,,0.00,WSDL version 423,2013-03-13 07:04:00,
2013-03-13 00:09:00,55.5,42.7,30.08,SSW,203,0.0,0.0,62,0.00,,,0.00,WSDL version 423,2013-03-13 07:09:00,
2013-03-13 00:14:00,-999.0,-99.9,30.08,SSW,203,0.0,0.0,-999,0.00,,,0.00,WSDL version 423,2013-03-13 07:14:00,
2013-03-13 00:19:00,-999.0,-99.9,30.08,SSW,203,0.0,0.0,-999,0.00,,,0.00,WSDL version 423,2013-03-13 07:19:00,
2013-03-13 00:24:00,-999.0,-99.9,30.08,SSW,203,0.0,0.0,-999,0.00,,,0.00,WSDL version 423,2013-03-13 07:24:00,
2013-03-13 00:29:00,-999.0,-99.9,30.08,SSW,203,0.0,0.0,-999,0.00,,,0.00,WSDL version 423,2013-03-13 07:29:00,
2013-03-13 00:34:00,-999.0,-99.9,30.08,SSW,203,0.0,0.0,-999,0.00,,,0.00,WSDL version 423,2013-03-13 07:34:00,
2013-03-13 00:39:00,-999.0,-99.9,30.09,SSW,203,0.0,0.0,-999,0.00,,,0.00,WSDL version 423,2013-03-13 07:39:00,
2013-03-13 00:44:00,-999.0,-99.9,30.08,SSW,203,0.0,0.0,-999,0.00,,,0.00,WSDL version 423,2013-03-13 07:44:00,
2013-03-13 00:49:00,-999.0,-99.9,30.08,SSW,203,0.0,0.0,-999,0.00,,,0.00,WSDL version 423,2013-03-13 07:49:00,
2013-03-13 00:54:00,-999.0,-99.9,30.08,SSW,203,0.0,0.0,-999,0.00,,,0.00,WSDL version 423,2013-03-13 07:54:00,
2013-03-13 00:59:00,-999.0,-99.9,30.08,SSW,203,0.0,0.0,-999,0.00,,,0.00,WSDL version 423,2013-03-13 07:59:00,
2013-03-13 01:04:00,-999.0,-99.9,30.08,SSW,203,0.0,0.0,-999,0.00,,,0.00,WSDL version 423,2013-03-13 08:04:00,
2013-03-13 01:09:00,-999.0,-99.9,30.08,SSW,203,0.0,0.0,-999,0.00,,,0.00,WSDL version 423,2013-03-13 08:09:00,
2013-03-13 01:14:00,-999.0,-99.9,30.08,SSW,203,0.0,0.0,-999,0.00,,,0.00,WSDL version 423,2013-03-13 08:14:00,
2013-03-13 01:19:00,-999.0,-99.9,30.08,SSW,203,0.0,0.0,-999,0.00,,,0.00,WSDL version 423,2013-03-13 08:19:00,
2013-03-13 01:24:00,-999.0,-99.9,30.08,SSW,203,0.0,0.0,-999,0.00,,,0.00,WSDL version 423,2013-03-13 08:24:00,
2013-03-13 01:29:00,-999.0,-99.9,30.08,SSW,203,0.0,0.0,-999,0.00,,,0.00,WSDL version 423,2013-03-13 08:29:00,
2013-03-13 01:34:00,54.5,44.4,30.08,SSW,203,0.0,0.0,69,0.00,,,0.00,WSDL version 423,2013-03-13 08:34:00,
2013-03-13 01:39:00,-999.0,-99.9,30.08,SSW,203,0.0,0.0,-999,0.00,,,0.00,WSDL version 423,2013-03-13 08:39:00,
2013-03-13 01:44:00,-999.0,-99.9,30.08,SSW,203,0.0,0.0,-999,0.00,,,0.00,WSDL version 423,2013-03-13 08:44:00,
2013-03-13 01:49:00,54.9,44.9,30.08,SSW,203,0.0,0.0,69,0.00,,,0.00,WSDL version 423,2013-03-13 08:49:00,
2013-03-13 01:54:00,-999.0,-99.9,30.08,SSW,203,0.0,0.0,-999,0.00,,,0.00,WSDL version 423,2013-03-13 08:54:00,
2013-03-13 01:59:00,54.9,44.5,30.08,SSW,203,0.0,0.0,68,0.00,,,0.00,WSDL version 423,2013-03-13 08:59:00,
2013-03-13 02:04:00,-999.0,-99.9,30.08,SSW,203,0.0,0.0,-999,0.00,,,0.00,WSDL version 423,2013-03-13 09:04:00,
2013-03-13 02:09:00,54.5,43.8,30.08,SSW,203,0.0,0.0,67,0.00,,,0.00,WSDL version 423,2013-03-13 09:09:00,
2013-03-13 02:14:00,54.5,43.8,30.08,SSW,203,0.0,0.0,67,0.00,,,0.00,WSDL version 423,2013-03-13 09:14:00,
2013-03-13 02:19:00,-999.0,-99.9,30.08,SSW,203,0.0,0.0,-999,0.00,,,0.00,WSDL version 423,2013-03-13 09:19:00,
2013-03-13 02:24:00,-999.0,-99.9,30.08,SSW,203,0.0,0.0,-999,0.00,,,0.00,WSDL version 423,2013-03-13 09:24:00,
2013-03-13 02:29:00,-999.0,-99.9,30.08,SSW,203,0.0,0.0,-999,0.00,,,0.00,WSDL version 423,2013-03-13 09:29:00,
2013-03-13 02:34:00,-999.0,-99.9,30.08,SSW,203,0.0,0.0,-999,0.00,,,0.00,WSDL version 423,2013-03-13 09:34:00,
2013-03-13 02:39:00,-999.0,-99.9,30.08,SSW,203,0.0,0.0,-999,0.00,,,0.00,WSDL version 423,2013-03-13 09:39:00,
2013-03-13 02:44:00,-999.0,-99.9,30.08,SSW,203,0.0,0.0,-999,0.00,,,0.00,WSDL version 423,2013-03-13 09:44:00,
2013-03-13 02:49:00,-999.0,-99.9,30.08,SSW,203,0.0,0.0,-999,0.00,,,0.00,WSDL version 423,2013-03-13 09:49:00,
2013-03-13 02:54:00,53.1,43.2,30.08,SSW,203,0.0,0.0,69,0.00,,,0.00,WSDL version 423,2013-03-13 09:54:00,
2013-03-13 02:59:00,-999.0,-99.9,30.08,SSW,203,0.0,0.0,-999,0.00,,,0.00,WSDL version 423,2013-03-13 09:59:00,
2013-03-13 03:04:00,-999.0,-99.9,30.08,SSW,203,0.0,0.0,-999,0.00,,,0.00,WSDL version 423,2013-03-13 10:04:00,
2013-03-13 03:09:00,-999.0,-99.9,30.08,SSW,203,0.0,0.0,-999,0.00,,,0.00,WSDL version 423,2013-03-13 10:09:00,
2013-03-13 03:14:00,-999.0,-99.9,30.08,SSW,203,0.0,0.0,-999,0.00,,,0.00,WSDL version 423,2013-03-13 10:14:00,
2013-03-13 03:19:00,-999.0,-99.9,30.08,SSW,203,0.0,0.0,-999,0.00,,,0.00,WSDL version 423,2013-03-13 10:19:00,
2013-03-13 03:24:00,-999.0,-99.9,30.08,SSW,203,0.0,0.0,-999,0.00,,,0.00,WSDL version 423,2013-03-13 10:24:00,
2013-03-13 03:29:00,-999.0,-99.9,30.08,SSW,203,0.0,0.0,-999,0.00,,,0.00,WSDL version 423,2013-03-13 10:29:00,
2013-03-13 03:34:00,-999.0,-99.9,30.08,SSW,203,0.0,0.0,-999,0.00,,,0.00,WSDL version 423,2013-03-13 10:34:00,
2013-03-13 03:39:00,-999.0,-99.9,30.08,SSW,203,0.0,0.0,-999,0.00,,,0.00,WSDL version 423,2013-03-13 10:39:00,
2013-03-13 03:44:00,51.4,43.4,30.08,SSW,203,0.0,0.0,74,0.00,,,0.00,WSDL version 423,2013-03-13 10:44:00,
2013-03-13 03:49:00,-999.0,-99.9,30.08,SSW,203,0.0,0.0,-999,0.00,,,0.00,WSDL version 423,2013-03-13 10:49:00,
2013-03-13 03:54:00,51.6,44.3,30.08,SSW,203,0.0,0.0,76,0.00,,,0.00,WSDL version 423,2013-03-13 10:54:00,
2013-03-13 03:59:00,-999.0,-99.9,30.08,SSW,203,0.0,0.0,-999,0.00,,,0.00,WSDL version 423,2013-03-13 10:59:00,
2013-03-13 04:04:00,-999.0,-99.9,30.08,SSW,203,0.0,0.0,-999,0.00,,,0.00,WSDL version 423,2013-03-13 11:04:00,
2013-03-13 04:09:00,-999.0,-99.9,30.08,SSW,203,0.0,0.0,-999,0.00,,,0.00,WSDL version 423,2013-03-13 11:09:00,
2013-03-13 04:14:00,-999.0,-99.9,30.08,SSW,203,0.0,0.0,-999,0.00,,,0.00,WSDL version 423,2013-03-13 11:14:00,
2013-03-13 04:19:00,-999.0,-99.9,30.08,SSW,203,0.0,0.0,-999,0.00,,,0.00,WSDL version 423,2013-03-13 11:19:00,
2013-03-13 04:24:00,-999.0,-99.9,30.09,SSW,203,0.0,0.0,-999,0.00,,,0.00,WSDL version 423,2013-03-13 11:24:00,
2013-03-13 04:29:00,-999.0,-99.9,30.09,SSW,203,0.0,0.0,-999,0.00,,,0.00,WSDL version 423,2013-03-13 11:29:00,
2013-03-13 04:34:00,-999.0,-99.9,30.09,SSW,203,0.0,0.0,-999,0.00,,,0.00,WSDL version 423,2013-03-13 11:34:00,
2013-03-13 04:39:00,-999.0,-99.9,30.09,SSW,203,0.0,0.0,-999,0.00,,,0.00,WSDL version 423,2013-03-13 11:39:00,
2013-03-13 04:44:00,50.2,43.9,30.09,SSW,203,0.0,0.0,79,0.00,,,0.00,WSDL version 423,2013-03-13 11:44:00,
2013-03-13 04:49:00,50.2,43.9,30.09,SSW,203,0.0,0.0,79,0.00,,,0.00,WSDL version 423,2013-03-13 11:49:00,
2013-03-13 04:54:00,-999.0,-99.9,30.09,SSW,203,0.0,0.0,-999,0.00,,,0.00,WSDL version 423,2013-03-13 11:54:00,
2013-03-13 04:59:00,-999.0,-99.9,30.09,SSW,203,0.0,0.0,-999,0.00,,,0.00,WSDL version 423,2013-03-13 11:59:00,
2013-03-13 05:04:00,50.4,45.2,30.09,SSW,203,0.0,0.0,82,0.00,,,0.00,WSDL version 423,2013-03-13 12:04:00,
2013-03-13 05:09:00,50.4,44.8,30.09,SSW,203,0.0,0.0,81,0.00,,,0.00,WSDL version 423,2013-03-13 12:09:00,
2013-03-13 05:14:00,50.3,44.3,30.09,SSW,203,0.0,0.0,80,0.00,,,0.00,WSDL version 423,2013-03-13 12:14:00,
2013-03-13 05:19:00,-999.0,-99.9,30.10,SSW,203,0.0,0.0,-999,0.00,,,0.00,WSDL version 423,2013-03-13 12:19:00,
2013-03-13 05:24:00,50.2,44.3,30.10,SSW,203,0.0,0.0,80,0.00,,,0.00,WSDL version 423,2013-03-13 12:24:00,
2013-03-13 05:29:00,-999.0,-99.9,30.10,SSW,203,0.0,0.0,-999,0.00,,,0.00,WSDL version 423,2013-03-13 12:29:00,
2013-03-13 05:34:00,-999.0,-99.9,30.10,SSW,203,0.0,0.0,-999,0.00,,,0.00,WSDL version 423,2013-03-13 12:34:00,
2013-03-13 05:39:00,-999.0,-99.9,30.10,SSW,203,0.0,0.0,-999,0.00,,,0.00,WSDL version 423,2013-03-13 12:39:00,
2013-03-13 05:44:00,50.7,45.1,30.10,SSW,203,0.0,0.0,81,0.00,,,0.00,WSDL version 423,2013-03-13 12:44:00,
2013-03-13 05:49:00,-999.0,-99.9,30.10,SSW,203,0.0,0.0,-999,0.00,,,0.00,WSDL version 423,2013-03-13 12:49:00,
2013-03-13 05:54:00,-999.0,-99.9,30.10,SSW,203,0.0,0.0,-999,0.00,,,0.00,WSDL version 423,2013-03-13 12:54:00,
2013-03-13 05:59:00,51.1,45.7,30.10,SSW,203,0.0,0.0,81,0.00,,,0.00,WSDL version 423,2013-03-13 12:59:00,
2013-03-13 06:04:00,-999.0,-99.9,30.10,SSW,203,0.0,0.0,-999,0.00,,,0.00,WSDL version 423,2013-03-13 13:04:00,
2013-03-13 06:09:00,51.6,46.0,30.10,SSW,203,0.0,0.0,81,0.00,,,0.00,WSDL version 423,2013-03-13 13:09:00,
2013-03-13 06:14:00,-999.0,-99.9,30.09,SSW,203,0.0,0.0,-999,0.00,,,0.00,WSDL version 423,2013-03-13 13:14:00,
2013-03-13 06:19:00,-999.0,-99.9,30.09,SSW,203,0.0,0.0,-999,0.00,,,0.00,WSDL version 423,2013-03-13 13:19:00,
2013-03-13 06:24:00,-999.0,-99.9,30.09,SSW,203,0.0,0.0,-999,0.00,,,0.00,WSDL version 423,2013-03-13 13:24:00,
2013-03-13 06:29:00,52.7,45.4,30.09,SSW,203,0.0,0.0,76,0.00,,,0.00,WSDL version 423,2013-03-13 13:29:00,
2013-03-13 06:34:00,-999.0,-99.9,30.09,SSW,203,0.0,0.0,-999,0.00,,,0.00,WSDL version 423,2013-03-13 13:34:00,
2013-03-13 06:39:00,-999.0,-99.9,30.09,SSW,203,0.0,0.0,-999,0.00,,,0.00,WSDL version 423,2013-03-13 13:39:00,
2013-03-13 06:44:00,-999.0,-99.9,30.09,SSW,203,0.0,0.0,-999,0.00,,,0.00,WSDL version 423,2013-03-13 13:44:00,
2013-03-13 06:54:00,-999.0,-99.9,30.09,SSW,203,0.0,0.0,-999,0.00,,,0.00,WSDL version 423,2013-03-13 13:54:00,
2013-03-13 06:59:00,-999.0,-99.9,30.09,SSW,203,0.0,0.0,-999,0.00,,,0.00,WSDL version 423,2013-03-13 13:59:00,
2013-03-13 07:04:00,-999.0,-99.9,30.09,SSW,203,0.0,0.0,-999,0.00,,,0.00,WSDL version 423,2013-03-13 14:04:00,
2013-03-13 07:09:00,-999.0,-99.9,30.10,SSW,203,0.0,0.0,-999,0.00,,,0.00,WSDL version 423,2013-03-13 14:09:00,
2013-03-13 07:14:00,-999.0,-99.9,30.10,SSW,203,0.0,0.0,-999,0.00,,,0.00,WSDL version 423,2013-03-13 14:14:00,
2013-03-13 07:19:00,-999.0,-99.9,30.10,SSW,203,0.0,0.0,-999,0.00,,,0.00,WSDL version 423,2013-03-13 14:19:00,
2013-03-13 07:24:00,-999.0,-99.9,30.10,SSW,203,0.0,0.0,-999,-99.99,,,-99.99,WSDL version 423,2013-03-13 14:24:00,
2013-03-13 07:29:00,-999.0,-99.9,30.10,SSW,203,0.0,0.0,-999,0.00,,,0.00,WSDL version 423,2013-03-13 14:29:00,
2013-03-13 07:34:00,-999.0,-99.9,30.10,SSW,203,0.0,0.0,-999,0.00,,,0.00,WSDL version 423,2013-03-13 14:34:00,
2013-03-13 07:39:00,53.1,42.8,30.10,SSW,203,0.0,0.0,68,0.00,,,0.00,WSDL version 423,2013-03-13 14:39:00,
2013-03-13 07:44:00,-999.0,-99.9,30.10,SSW,203,0.0,0.0,-999,0.00,,,0.00,WSDL version 423,2013-03-13 14:44:00,
2013-03-13 07:49:00,-999.0,-99.9,30.11,SSW,203,0.0,0.0,-999,0.00,,,0.00,WSDL version 423,2013-03-13 14:49:00,
2013-03-13 07:54:00,52.9,43.0,30.11,SSW,203,0.0,0.0,69,0.00,,,0.00,WSDL version 423,2013-03-13 14:54:00,
2013-03-13 07:59:00,53.1,43.5,30.11,SSW,203,0.0,0.0,70,0.00,,,0.00,WSDL version 423,2013-03-13 14:59:00,
2013-03-13 08:04:00,-999.0,-99.9,30.11,SSW,203,0.0,0.0,-999,0.00,,,0.00,WSDL version 423,2013-03-13 15:04:00,
2013-03-13 08:09:00,-999.0,-99.9,30.11,SSW,203,0.0,0.0,-999,0.00,,,0.00,WSDL version 423,2013-03-13 15:09:00,
2013-03-13 08:14:00,-999.0,-99.9,30.11,SSW,203,0.0,0.0,-999,0.00,,,0.00,WSDL version 423,2013-03-13 15:14:00,
2013-03-13 08:19:00,-999.0,-99.9,30.11,SSW,203,0.0,0.0,-999,0.00,,,0.00,WSDL version 423,2013-03-13 15:19:00,
2013-03-13 08:24:00,56.1,47.2,30.12,SSW,203,0.0,0.0,72,0.00,,,0.00,WSDL version 423,2013-03-13 15:24:00,
2013-03-13 08:29:00,-999.0,-99.9,30.12,SSW,203,0.0,0.0,-999,0.00,,,0.00,WSDL version 423,2013-03-13 15:29:00,
2013-03-13 08:34:00,-999.0,-99.9,30.12,SSW,203,0.0,0.0,-999,0.00,,,0.00,WSDL version 423,2013-03-13 15:34:00,
2013-03-13 08:39:00,-999.0,-99.9,30.12,SSW,203,0.0,0.0,-999,0.00,,,0.00,WSDL version 423,2013-03-13 15:39:00,
2013-03-13 08:44:00,-999.0,-99.9,30.12,SSW,203,0.0,0.0,-999,0.00,,,0.00,WSDL version 423,2013-03-13 15:44:00,
2013-03-13 08:49:00,-999.0,-99.9,30.12,SSW,203,0.0,0.0,-999,0.00,,,0.00,WSDL version 423,2013-03-13 15:49:00,
2013-03-13 08:54:00,-999.0,-99.9,30.12,SSW,203,0.0,0.0,-999,0.00,,,0.00,WSDL version 423,2013-03-13 15:54:00,
2013-03-13 08:59:00,-999.0,-99.9,30.12,SSW,203,0.0,0.0,-999,0.00,,,0.00,WSDL version 423,2013-03-13 15:59:00,
2013-03-13 09:04:00,64.7,48.6,30.12,SSW,203,0.0,0.0,56,0.00,,,0.00,WSDL version 423,2013-03-13 16:04:00,
2013-03-13 09:09:00,-999.0,-99.9,30.11,SSW,203,0.0,0.0,-999,0.00,,,0.00,WSDL version 423,2013-03-13 16:09:00,
2013-03-13 09:14:00,65.5,48.0,30.12,SSW,203,0.0,0.0,52,0.00,,,0.00,WSDL version 423,2013-03-13 16:14:00,
2013-03-13 09:19:00,66.6,47.4,30.11,SSW,203,0.0,0.0,49,0.00,,,0.00,WSDL version 423,2013-03-13 16:19:00,
2013-03-13 09:24:00,67.6,47.8,30.11,SSW,203,0.0,0.0,47,0.00,,,0.00,WSDL version 423,2013-03-13 16:24:00,
2013-03-13 09:29:00,68.6,46.8,30.11,SSW,203,0.0,0.0,46,0.00,,,0.00,WSDL version 423,2013-03-13 16:29:00,
2013-03-13 09:34:00,-999.0,-99.9,30.11,SSW,203,0.0,0.0,-999,0.00,,,0.00,WSDL version 423,2013-03-13 16:34:00,
2013-03-13 09:39:00,69.6,46.0,30.11,SSW,203,0.0,0.0,42,0.00,,,0.00,WSDL version 423,2013-03-13 16:39:00,
2013-03-13 09:44:00,70.1,45.9,30.11,SSW,203,0.0,0.0,42,0.00,,,0.00,WSDL version 423,2013-03-13 16:44:00,
2013-03-13 09:49:00,70.3,46.1,30.11,SSW,203,0.0,0.0,42,0.00,,,0.00,WSDL version 423,2013-03-13 16:49:00,
2013-03-13 09:54:00,70.3,46.3,30.11,SSW,203,0.0,0.0,42,0.00,,,0.00,WSDL version 423,2013-03-13 16:54:00,
2013-03-13 09:59:00,71.0,46.8,30.11,SSW,203,0.0,0.0,42,0.00,,,0.00,WSDL version 423,2013-03-13 16:59:00,
2013-03-13 10:04:00,71.2,46.9,30.11,SSW,203,0.0,0.0,42,0.00,,,0.00,WSDL version 423,2013-03-13 17:04:00,
2013-03-13 10:09:00,70.6,46.2,30.12,SSW,203,0.0,0.0,41,0.00,,,0.00,WSDL version 423,2013-03-13 17:09:00,
2013-03-13 10:14:00,69.5,45.6,30.12,SSW,203,0.0,0.0,43,0.00,,,0.00,WSDL version 423,2013-03-13 17:14:00,
2013-03-13 10:19:00,69.0,45.8,30.12,SSW,203,0.0,0.0,43,0.00,,,0.00,WSDL version 423,2013-03-13 17:19:00,
2013-03-13 10:24:00,69.3,46.7,30.12,SSW,203,0.0,0.0,44,0.00,,,0.00,WSDL version 423,2013-03-13 17:24:00,
2013-03-13 10:29:00,69.5,46.6,30.12,SSW,203,0.0,0.0,44,0.00,,,0.00,WSDL version 423,2013-03-13 17:29:00,
2013-03-13 10:34:00,69.4,46.3,30.12,SSW,203,0.0,0.0,43,0.00,,,0.00,WSDL version 423,2013-03-13 17:34:00,
2013-03-13 10:39:00,69.7,46.7,30.12,SSW,203,0.0,0.0,44,0.00,,,0.00,WSDL version 423,2013-03-13 17:39:00,
2013-03-13 10:44:00,69.7,47.0,30.13,SSW,203,0.0,0.0,44,0.00,,,0.00,WSDL version 423,2013-03-13 17:44:00,
2013-03-13 10:49:00,70.2,47.0,30.12,SSW,203,0.0,0.0,43,0.00,,,0.00,WSDL version 423,2013-03-13 17:49:00,
2013-03-13 10:54:00,70.9,47.1,30.12,SSW,203,0.0,0.0,43,0.00,,,0.00,WSDL version 423,2013-03-13 17:54:00,
2013-03-13 10:59:00,71.0,46.4,30.12,SSW,203,0.0,0.0,41,0.00,,,0.00,WSDL version 423,2013-03-13 17:59:00,
2013-03-13 11:04:00,71.0,46.0,30.12,SSW,203,0.0,0.0,41,0.00,,,0.00,WSDL version 423,2013-03-13 18:04:00,
2013-03-13 11:09:00,72.1,46.2,30.12,SSW,203,0.0,0.0,40,0.00,,,0.00,WSDL version 423,2013-03-13 18:09:00,
2013-03-13 11:14:00,73.0,46.4,30.12,SSW,203,0.0,0.0,38,0.00,,,0.00,WSDL version 423,2013-03-13 18:14:00,
2013-03-13 11:19:00,72.8,45.0,30.12,SSW,203,0.0,0.0,37,0.00,,,0.00,WSDL version 423,2013-03-13 18:19:00,
2013-03-13 11:24:00,72.6,45.6,30.12,SSW,203,0.0,0.0,38,0.00,,,0.00,WSDL version 423,2013-03-13 18:24:00,
2013-03-13 11:29:00,71.9,45.8,30.12,SSW,203,0.0,0.0,40,0.00,,,0.00,WSDL version 423,2013-03-13 18:29:00,
2013-03-13 11:34:00,71.2,45.8,30.12,SSW,203,0.0,0.0,41,0.00,,,0.00,WSDL version 423,2013-03-13 18:34:00,
2013-03-13 11:39:00,71.1,46.0,30.12,SSW,203,0.0,0.0,40,0.00,,,0.00,WSDL version 423,2013-03-13 18:39:00,
2013-03-13 11:44:00,71.7,46.9,30.12,SSW,203,0.0,0.0,41,0.00,,,0.00,WSDL version 423,2013-03-13 18:44:00,
2013-03-13 11:49:00,72.4,46.2,30.12,SSW,203,0.0,0.0,39,0.00,,,0.00,WSDL version 423,2013-03-13 18:49:00,
2013-03-13 11:59:00,71.9,45.7,30.12,SSW,203,0.0,0.0,40,0.00,,,0.00,WSDL version 423,2013-03-13 18:59:00,
2013-03-13 12:09:00,72.1,44.8,30.12,SSW,203,0.0,0.0,37,0.00,,,0.00,WSDL version 423,2013-03-13 19:09:00,
2013-03-13 12:14:00,72.7,46.4,30.12,SSW,203,0.0,0.0,40,0.00,,,0.00,WSDL version 423,2013-03-13 19:14:00,
2013-03-13 12:19:00,73.0,46.6,30.12,SSW,203,0.0,0.0,38,0.00,,,0.00,WSDL version 423,2013-03-13 19:19:00,
2013-03-13 12:24:00,73.0,45.3,30.12,SSW,203,0.0,0.0,37,0.00,,,0.00,WSDL version 423,2013-03-13 19:24:00,
2013-03-13 12:29:00,73.7,45.6,30.11,SSW,203,0.0,0.0,37,0.00,,,0.00,WSDL version 423,2013-03-13 19:29:00,
2013-03-13 12:34:00,73.9,45.1,30.11,SSW,203,0.0,0.0,36,0.00,,,0.00,WSDL version 423,2013-03-13 19:34:00,
2013-03-13 12:39:00,75.0,45.5,30.11,SSW,203,0.0,0.0,35,0.00,,,0.00,WSDL version 423,2013-03-13 19:39:00,
2013-03-13 12:44:00,74.9,44.2,30.11,SSW,203,0.0,0.0,33,0.00,,,0.00,WSDL version 423,2013-03-13 19:44:00,
2013-03-13 12:49:00,74.4,44.0,30.11,SSW,203,0.0,0.0,34,0.00,,,0.00,WSDL version 423,2013-03-13 19:49:00,
2013-03-13 12:54:00,74.2,44.4,30.10,SSW,203,0.0,0.0,35,0.00,,,0.00,WSDL version 423,2013-03-13 19:54:00,
2013-03-13 13:04:00,74.2,44.2,30.10,SSW,203,0.0,0.0,34,0.00,,,0.00,WSDL version 423,2013-03-13 20:04:00,
2013-03-13 13:09:00,74.8,44.9,30.10,SSW,203,0.0,0.0,34,0.00,,,0.00,WSDL version 423,2013-03-13 20:09:00,
2013-03-13 13:14:00,75.3,44.4,30.10,SSW,203,0.0,0.0,33,0.00,,,0.00,WSDL version 423,2013-03-13 20:14:00,
2013-03-13 13:24:00,75.8,44.9,30.09,SSW,203,0.0,0.0,33,0.00,,,0.00,WSDL version 423,2013-03-13 20:24:00,
2013-03-13 13:29:00,76.1,44.4,30.09,SSW,203,0.0,0.0,33,0.00,,,0.00,WSDL version 423,2013-03-13 20:29:00,
2013-03-13 13:34:00,76.3,44.5,30.09,SSW,203,0.0,0.0,32,0.00,,,0.00,WSDL version 423,2013-03-13 20:34:00,
2013-03-13 13:39:00,76.4,44.7,30.09,SSW,203,0.0,0.0,32,0.00,,,0.00,WSDL version 423,2013-03-13 20:39:00,
2013-03-13 13:44:00,76.4,44.8,30.08,SSW,203,0.0,0.0,33,0.00,,,0.00,WSDL version 423,2013-03-13 20:44:00,
2013-03-13 13:49:00,76.9,45.0,30.08,SSW,203,0.0,0.0,32,0.00,,,0.00,WSDL version 423,2013-03-13 20:49:00,
2013-03-13 13:54:00,77.0,44.6,30.08,SSW,203,0.0,0.0,32,0.00,,,0.00,WSDL version 423,2013-03-13 20:54:00,
2013-03-13 13:59:00,76.9,44.8,30.08,SSW,203,0.0,0.0,32,0.00,,,0.00,WSDL version 423,2013-03-13 20:59:00,
2013-03-13 14:04:00,76.9,44.6,30.08,SSW,203,0.0,0.0,31,0.00,,,0.00,WSDL version 423,2013-03-13 21:04:00,
2013-03-13 14:09:00,77.0,44.3,30.08,SSW,203,0.0,0.0,32,0.00,,,0.00,WSDL version 423,2013-03-13 21:09:00,
2013-03-13 14:19:00,75.3,43.5,30.08,SSW,203,0.0,0.0,32,0.00,,,0.00,WSDL version 423,2013-03-13 21:19:00,
2013-03-13 14:24:00,75.5,44.0,30.07,SSW,203,0.0,0.0,33,0.00,,,0.00,WSDL version 423,2013-03-13 21:24:00,
2013-03-13 14:29:00,75.8,44.2,30.07,SSW,203,0.0,0.0,33,0.00,,,0.00,WSDL version 423,2013-03-13 21:29:00,
2013-03-13 14:34:00,76.2,44.7,30.07,SSW,203,0.0,0.0,32,0.00,,,0.00,WSDL version 423,2013-03-13 21:34:00,
2013-03-13 14:39:00,76.4,44.4,30.07,SSW,203,0.0,0.0,32,0.00,,,0.00,WSDL version 423,2013-03-13 21:39:00,
2013-03-13 14:44:00,76.5,44.4,30.07,SSW,203,0.0,0.0,32,0.00,,,0.00,WSDL version 423,2013-03-13 21:44:00,
2013-03-13 14:49:00,76.4,44.4,30.07,SSW,203,0.0,0.0,32,0.00,,,0.00,WSDL version 423,2013-03-13 21:49:00,
2013-03-13 14:54:00,76.5,44.6,30.07,SSW,203,0.0,0.0,33,0.00,,,0.00,WSDL version 423,2013-03-13 21:54:00,
2013-03-13 14:59:00,77.0,44.9,30.06,SSW,203,0.0,0.0,32,0.00,,,0.00,WSDL version 423,2013-03-13 21:59:00,
2013-03-13 15:04:00,77.2,44.4,30.06,SSW,203,0.0,0.0,31,0.00,,,0.00,WSDL version 423,2013-03-13 22:04:00,
2013-03-13 15:09:00,77.2,44.2,30.06,SSW,203,0.0,0.0,31,0.00,,,0.00,WSDL version 423,2013-03-13 22:09:00,
2013-03-13 15:14:00,76.7,44.3,30.06,SSW,203,0.0,0.0,32,0.00,,,0.00,WSDL version 423,2013-03-13 22:14:00,
2013-03-13 15:19:00,76.3,43.9,30.06,SSW,203,0.0,0.0,31,0.00,,,0.00,WSDL version 423,2013-03-13 22:19:00,
2013-03-13 15:24:00,76.0,43.7,30.06,SSW,203,0.0,0.0,32,0.00,,,0.00,WSDL version 423,2013-03-13 22:24:00,
2013-03-13 15:29:00,76.3,44.0,30.06,SSW,203,0.0,0.0,32,0.00,,,0.00,WSDL version 423,2013-03-13 22:29:00,
2013-03-13 15:34:00,76.1,43.6,30.06,SSW,203,0.0,0.0,32,0.00,,,0.00,WSDL version 423,2013-03-13 22:34:00,
2013-03-13 15:39:00,75.8,43.7,30.06,SSW,203,0.0,0.0,32,0.00,,,0.00,WSDL version 423,2013-03-13 22:39:00,
2013-03-13 15:44:00,75.4,42.7,30.06,SSW,203,0.0,0.0,31,0.00,,,0.00,WSDL version 423,2013-03-13 22:44:00,
2013-03-13 15:49:00,75.4,42.8,30.06,SSW,203,0.0,0.0,32,0.00,,,0.00,WSDL version 423,2013-03-13 22:49:00,
2013-03-13 15:54:00,75.3,43.4,30.06,SSW,203,0.0,0.0,32,0.00,,,0.00,WSDL version 423,2013-03-13 22:54:00,
2013-03-13 15:59:00,75.6,43.7,30.06,SSW,203,0.0,0.0,32,0.00,,,0.00,WSDL version 423,2013-03-13 22:59:00,
2013-03-13 16:09:00,75.1,43.2,30.06,SSW,203,0.0,0.0,32,0.00,,,0.00,WSDL version 423,2013-03-13 23:09:00,
2013-03-13 16:14:00,75.2,43.4,30.06,SSW,203,0.0,0.0,32,0.00,,,0.00,WSDL version 423,2013-03-13 23:14:00,
2013-03-13 16:19:00,75.1,43.1,30.06,SSW,203,0.0,0.0,32,0.00,,,0.00,WSDL version 423,2013-03-13 23:19:00,
2013-03-13 16:24:00,75.0,43.2,30.05,SSW,203,0.0,0.0,32,0.00,,,0.00,WSDL version 423,2013-03-13 23:24:00,
2013-03-13 16:34:00,75.0,43.0,30.05,SSW,203,0.0,0.0,32,0.00,,,0.00,WSDL version 423,2013-03-13 23:34:00,
2013-03-13 16:39:00,75.0,42.6,30.05,SSW,203,0.0,0.0,31,0.00,,,0.00,WSDL version 423,2013-03-13 23:39:00,
2013-03-13 16:44:00,75.2,42.7,30.05,SSW,203,0.0,0.0,31,0.00,,,0.00,WSDL version 423,2013-03-13 23:44:00,
2013-03-13 16:49:00,75.2,42.5,30.05,SSW,203,0.0,0.0,31,0.00,,,0.00,WSDL version 423,2013-03-13 23:49:00,
2013-03-13 16:54:00,75.3,42.6,30.05,SSW,203,0.0,0.0,31,0.00,,,0.00,WSDL version 423,2013-03-13 23:54:00,
2013-03-13 16:59:00,75.3,41.7,30.05,SSW,203,0.0,0.0,30,0.00,,,0.00,WSDL version 423,2013-03-13 23:59:00,
2013-03-13 17:04:00,75.3,42.5,30.05,SSW,203,0.0,0.0,31,0.00,,,0.00,WSDL version 423,2013-03-14 00:04:00,
2013-03-13 17:09:00,75.2,42.6,30.05,SSW,203,0.0,0.0,31,0.00,,,0.00,WSDL version 423,2013-03-14 00:09:00,
2013-03-13 17:14:00,75.1,42.5,30.05,SSW,203,0.0,0.0,31,0.00,,,0.00,WSDL version 423,2013-03-14 00:14:00,
2013-03-13 17:19:00,75.0,42.4,30.05,SSW,203,0.0,0.0,31,0.00,,,0.00,WSDL version 423,2013-03-14 00:19:00,
2013-03-13 17:24:00,75.0,42.3,30.05,SSW,203,0.0,0.0,31,0.00,,,0.00,WSDL version 423,2013-03-14 00:24:00,
2013-03-13 17:29:00,74.8,42.2,30.05,SSW,203,0.0,0.0,31,0.00,,,0.00,WSDL version 423,2013-03-14 00:29:00,
2013-03-13 17:34:00,74.7,42.1,30.05,SSW,203,0.0,0.0,31,0.00,,,0.00,WSDL version 423,2013-03-14 00:34:00,
2013-03-13 17:39:00,74.7,42.1,30.04,SSW,203,0.0,0.0,31,0.00,,,0.00,WSDL version 423,2013-03-14 00:39:00,
2013-03-13 17:44:00,74.6,41.8,30.05,SSW,203,0.0,0.0,30,0.00,,,0.00,WSDL version 423,2013-03-14 00:44:00,
2013-03-13 17:49:00,74.5,41.2,30.04,SSW,203,0.0,0.0,30,0.00,,,0.00,WSDL version 423,2013-03-14 00:49:00,
2013-03-13 17:54:00,74.5,41.1,30.04,SSW,203,0.0,0.0,30,0.00,,,0.00,WSDL version 423,2013-03-14 00:54:00,
2013-03-13 17:59:00,74.4,40.1,30.04,SSW,203,0.0,0.0,29,0.00,,,0.00,WSDL version 423,2013-03-14 00:59:00,
2013-03-13 18:04:00,74.3,40.6,30.04,SSW,203,0.0,0.0,30,0.00,,,0.00,WSDL version 423,2013-03-14 01:04:00,
2013-03-13 18:09:00,74.1,40.7,30.04,SSW,203,0.0,0.0,30,0.00,,,0.00,WSDL version 423,2013-03-14 01:09:00,
2013-03-13 18:14:00,73.9,41.2,30.04,SSW,203,0.0,0.0,31,0.00,,,0.00,WSDL version 423,2013-03-14 01:14:00,
2013-03-13 18:19:00,73.7,41.2,30.04,SSW,203,0.0,0.0,31,0.00,,,0.00,WSDL version 423,2013-03-14 01:19:00,
2013-03-13 18:24:00,73.5,41.1,30.04,SSW,203,0.0,0.0,31,0.00,,,0.00,WSDL version 423,2013-03-14 01:24:00,
2013-03-13 18:29:00,73.2,40.8,30.04,SSW,203,0.0,0.0,31,0.00,,,0.00,WSDL version 423,2013-03-14 01:29:00,
2013-03-13 18:34:00,72.9,40.5,30.03,SSW,203,0.0,0.0,31,0.00,,,0.00,WSDL version 423,2013-03-14 01:34:00,
2013-03-13 18:39:00,72.8,40.4,30.03,SSW,203,0.0,0.0,31,0.00,,,0.00,WSDL version 423,2013-03-14 01:39:00,
2013-03-13 18:44:00,72.5,41.0,30.03,SSW,203,0.0,0.0,32,0.00,,,0.00,WSDL version 423,2013-03-14 01:44:00,
2013-03-13 18:49:00,72.1,40.7,30.03,SSW,203,0.0,0.0,32,0.00,,,0.00,WSDL version 423,2013-03-14 01:49:00,
2013-03-13 18:54:00,71.8,40.4,30.03,SSW,203,0.0,0.0,32,0.00,,,0.00,WSDL version 423,2013-03-14 01:54:00,
2013-03-13 18:59:00,71.2,40.7,30.03,SSW,203,0.0,0.0,33,0.00,,,0.00,WSDL version 423,2013-03-14 01:59:00,
2013-03-13 19:04:00,70.8,40.3,30.03,SSW,203,0.0,0.0,33,0.00,,,0.00,WSDL version 423,2013-03-14 02:04:00,
2013-03-13 19:09:00,70.3,39.8,30.03,SSW,203,0.0,0.0,33,0.00,,,0.00,WSDL version 423,2013-03-14 02:09:00,
2013-03-13 19:14:00,69.6,40.2,30.03,SSW,203,0.0,0.0,35,0.00,,,0.00,WSDL version 423,2013-03-14 02:14:00,
2013-03-13 19:19:00,68.8,40.1,30.04,SSW,203,0.0,0.0,35,0.00,,,0.00,WSDL version 423,2013-03-14 02:19:00,
2013-03-13 19:24:00,68.0,39.5,30.04,SSW,203,0.0,0.0,36,0.00,,,0.00,WSDL version 423,2013-03-14 02:24:00,
2013-03-13 19:29:00,67.5,39.9,30.04,SSW,203,0.0,0.0,37,0.00,,,0.00,WSDL version 423,2013-03-14 02:29:00,
2013-03-13 19:34:00,67.2,40.6,30.04,SSW,203,0.0,0.0,38,0.00,,,0.00,WSDL version 423,2013-03-14 02:34:00,
2013-03-13 19:39:00,66.7,41.0,30.04,SSW,203,0.0,0.0,39,0.00,,,0.00,WSDL version 423,2013-03-14 02:39:00,
2013-03-13 19:44:00,66.1,40.5,30.04,SSW,203,0.0,0.0,39,0.00,,,0.00,WSDL version 423,2013-03-14 02:44:00,
2013-03-13 19:49:00,65.7,40.9,30.04,SSW,203,0.0,0.0,42,0.00,,,0.00,WSDL version 423,2013-03-14 02:49:00,
2013-03-13 19:54:00,65.3,42.2,30.04,SSW,203,0.0,0.0,43,0.00,,,0.00,WSDL version 423,2013-03-14 02:54:00,
2013-03-13 19:59:00,64.9,41.3,30.04,SSW,203,0.0,0.0,42,0.00,,,0.00,WSDL version 423,2013-03-14 02:59:00,
2013-03-13 20:04:00,64.6,42.3,30.04,SSW,203,0.0,0.0,44,0.00,,,0.00,WSDL version 423,2013-03-14 03:04:00,
2013-03-13 20:09:00,64.4,42.0,30.04,SSW,203,0.0,0.0,44,0.00,,,0.00,WSDL version 423,2013-03-14 03:09:00,
2013-03-13 20:14:00,64.0,42.3,30.04,SSW,203,0.0,0.0,45,0.00,,,0.00,WSDL version 423,2013-03-14 03:14:00,
2013-03-13 20:19:00,63.7,42.2,30.04,SSW,203,0.0,0.0,46,0.00,,,0.00,WSDL version 423,2013-03-14 03:19:00,
2013-03-13 20:24:00,63.3,42.2,30.04,SSW,203,0.0,0.0,46,0.00,,,0.00,WSDL version 423,2013-03-14 03:24:00,
2013-03-13 20:29:00,63.1,42.0,30.04,SSW,203,0.0,0.0,46,0.00,,,0.00,WSDL version 423,2013-03-14 03:29:00,
2013-03-13 20:34:00,62.8,41.9,30.04,SSW,203,0.0,0.0,47,0.00,,,0.00,WSDL version 423,2013-03-14 03:34:00,
2013-03-13 20:39:00,62.8,42.7,30.04,SSW,203,0.0,0.0,48,0.00,,,0.00,WSDL version 423,2013-03-14 03:39:00,
2013-03-13 20:44:00,62.4,42.2,30.04,SSW,203,0.0,0.0,47,0.00,,,0.00,WSDL version 423,2013-03-14 03:44:00,
2013-03-13 20:49:00,61.9,41.5,30.04,SSW,203,0.0,0.0,47,0.00,,,0.00,WSDL version 423,2013-03-14 03:49:00,
2013-03-13 20:54:00,61.6,41.5,30.04,SSW,203,0.0,0.0,48,0.00,,,0.00,WSDL version 423,2013-03-14 03:54:00,
2013-03-13 20:59:00,61.4,42.0,30.04,SSW,203,0.0,0.0,49,0.00,,,0.00,WSDL version 423,2013-03-14 03:59:00,
2013-03-13 21:04:00,61.3,41.5,30.04,SSW,203,0.0,0.0,48,0.00,,,0.00,WSDL version 423,2013-03-14 04:04:00,
2013-03-13 21:09:00,61.0,41.2,30.04,SSW,203,0.0,0.0,48,0.00,,,0.00,WSDL version 423,2013-03-14 04:09:00,
2013-03-13 21:14:00,60.7,41.4,30.04,SSW,203,0.0,0.0,49,0.00,,,0.00,WSDL version 423,2013-03-14 04:14:00,
2013-03-13 21:19:00,60.5,42.2,30.04,SSW,203,0.0,0.0,51,0.00,,,0.00,WSDL version 423,2013-03-14 04:19:00,
2013-03-13 21:24:00,60.4,42.4,30.04,SSW,203,0.0,0.0,52,0.00,,,0.00,WSDL version 423,2013-03-14 04:24:00,
2013-03-13 21:29:00,60.1,42.4,30.04,SSW,203,0.0,0.0,52,0.00,,,0.00,WSDL version 423,2013-03-14 04:29:00,
2013-03-13 21:34:00,59.8,42.2,30.04,SSW,203,0.0,0.0,52,0.00,,,0.00,WSDL version 423,2013-03-14 04:34:00,
2013-03-13 21:39:00,59.7,42.1,30.04,SSW,203,0.0,0.0,52,0.00,,,0.00,WSDL version 423,2013-03-14 04:39:00,
2013-03-13 21:44:00,59.8,42.1,30.04,SSW,203,0.0,0.0,52,0.00,,,0.00,WSDL version 423,2013-03-14 04:44:00,
2013-03-13 21:49:00,59.8,42.2,30.04,SSW,203,0.0,0.0,52,0.00,,,0.00,WSDL version 423,2013-03-14 04:49:00,
2013-03-13 21:54:00,59.6,42.0,30.04,SSW,203,0.0,0.0,52,0.00,,,0.00,WSDL version 423,2013-03-14 04:54:00,
2013-03-13 21:59:00,59.5,42.2,30.04,SSW,203,0.0,0.0,53,0.00,,,0.00,WSDL version 423,2013-03-14 04:59:00,
2013-03-13 22:04:00,59.5,42.4,30.05,SSW,203,0.0,0.0,53,0.00,,,0.00,WSDL version 423,2013-03-14 05:04:00,
2013-03-13 22:09:00,59.6,42.2,30.05,SSW,203,0.0,0.0,52,0.00,,,0.00,WSDL version 423,2013-03-14 05:09:00,
2013-03-13 22:14:00,59.5,41.9,30.05,SSW,203,0.0,0.0,52,0.00,,,0.00,WSDL version 423,2013-03-14 05:14:00,
2013-03-13 22:19:00,59.3,41.7,30.05,SSW,203,0.0,0.0,52,0.00,,,0.00,WSDL version 423,2013-03-14 05:19:00,
2013-03-13 22:24:00,59.2,42.0,30.05,SSW,203,0.0,0.0,53,0.00,,,0.00,WSDL version 423,2013-03-14 05:24:00,
2013-03-13 22:29:00,59.2,43.1,30.05,SSW,203,0.0,0.0,56,0.00,,,0.00,WSDL version 423,2013-03-14 05:29:00,
2013-03-13 22:34:00,59.4,43.7,30.05,SSW,203,0.0,0.0,56,0.00,,,0.00,WSDL version 423,2013-03-14 05:34:00,
2013-03-13 22:39:00,59.3,43.1,30.05,SSW,203,0.0,0.0,55,0.00,,,0.00,WSDL version 423,2013-03-14 05:39:00,
2013-03-13 22:44:00,58.9,42.8,30.05,SSW,203,0.0,0.0,55,0.00,,,0.00,WSDL version 423,2013-03-14 05:44:00,
2013-03-13 22:49:00,58.7,42.6,30.05,SSW,203,0.0,0.0,55,0.00,,,0.00,WSDL version 423,2013-03-14 05:49:00,
2013-03-13 22:54:00,58.5,42.4,30.05,SSW,203,0.0,0.0,55,0.00,,,0.00,WSDL version 423,2013-03-14 05:54:00,
2013-03-13 22:59:00,58.5,42.6,30.05,SSW,203,0.0,0.0,56,0.00,,,0.00,WSDL version 423,2013-03-14 05:59:00,
2013-03-13 23:04:00,58.2,42.4,30.05,SSW,203,0.0,0.0,56,0.00,,,0.00,WSDL version 423,2013-03-14 06:04:00,
2013-03-13 23:09:00,58.1,42.6,30.05,SSW,203,0.0,0.0,57,0.00,,,0.00,WSDL version 423,2013-03-14 06:09:00,
2013-03-13 23:14:00,58.2,43.1,30.05,SSW,203,0.0,0.0,57,0.00,,,0.00,WSDL version 423,2013-03-14 06:14:00,
2013-03-13 23:19:00,58.4,43.3,30.05,SSW,203,0.0,0.0,57,0.00,,,0.00,WSDL version 423,2013-03-14 06:19:00,
2013-03-13 23:24:00,58.5,43.4,30.05,SSW,203,0.0,0.0,57,0.00,,,0.00,WSDL version 423,2013-03-14 06:24:00,
2013-03-13 23:29:00,58.8,43.6,30.05,SSW,203,0.0,0.0,57,0.00,,,0.00,WSDL version 423,2013-03-14 06:29:00,
2013-03-13 23:34:00,59.0,43.3,30.05,SSW,203,0.0,0.0,56,0.00,,,0.00,WSDL version 423,2013-03-14 06:34:00,
2013-03-13 23:39:00,59.0,43.4,30.05,SSW,203,0.0,0.0,56,0.00,,,0.00,WSDL version 423,2013-03-14 06:39:00,
2013-03-13 23:44:00,58.7,43.1,30.05,SSW,203,0.0,0.0,56,0.00,,,0.00,WSDL version 423,2013-03-14 06:44:00,
2013-03-13 23:49:00,58.5,42.9,30.05,SSW,203,0.0,0.0,56,0.00,,,0.00,WSDL version 423,2013-03-14 06:49:00,
2013-03-13 23:54:00,58.4,43.2,30.05,SSW,203,0.0,0.0,57,0.00,,,0.00,WSDL version 423,2013-03-14 06:54:00,
2013-03-13 23:59:00,58.1,43.0,30.05,SSW,203,0.0,0.0,57,0.00,,,0.00,WSDL version 423,2013-03-14 06:59:00,